Time;durP1;ratioP1;P1;durP2;ratioP2;P2;SDS_P1;SDS_P2;PMS_P1;PMS_P2;Temp;Humidity;BMP_temperature;BMP_pressure;BME280_temperature;BME280_humidity;BME280_pressure;Samples;Min_cycle;Max_cycle;Signal;HPM_P1;HPM_P2
2022/05/15 00:01:51;;;;;;;11.93;6.25;;;10.90;99.90;;;;;;4992426;28;20053;-65
2022/05/15 00:04:16;;;;;;;11.82;4.97;;;10.80;99.90;;;;;;4996380;28;20474;-65
2022/05/15 00:06:43;;;;;;;11.43;4.85;;;10.80;99.90;;;;;;5001932;28;20497;-65
2022/05/15 00:09:09;;;;;;;14.35;5.80;;;10.80;99.90;;;;;;4994604;28;20065;-65
2022/05/15 00:11:35;;;;;;;14.43;5.82;;;10.70;99.90;;;;;;4998148;28;20119;-65
2022/05/15 00:14:02;;;;;;;16.02;4.97;;;10.70;99.90;;;;;;4999182;28;20045;-66
2022/05/15 00:16:29;;;;;;;15.57;5.25;;;10.70;99.90;;;;;;4995938;28;20075;-67
2022/05/15 00:18:55;;;;;;;11.38;5.15;;;10.60;99.90;;;;;;5007918;28;20087;-67
2022/05/15 00:21:20;;;;;;;17.65;6.32;;;10.60;99.90;;;;;;4999700;28;20047;-66
2022/05/15 00:23:46;;;;;;;14.55;5.22;;;10.60;99.90;;;;;;4998824;28;20080;-67
2022/05/15 00:26:12;;;;;;;10.65;5.90;;;10.60;99.90;;;;;;5003638;28;20535;-67
2022/05/15 00:28:38;;;;;;;15.88;6.55;;;10.70;99.90;;;;;;5000773;28;20063;-67
2022/05/15 00:31:04;;;;;;;8.93;5.45;;;10.20;99.90;;;;;;4996653;28;20050;-66
2022/05/15 00:33:30;;;;;;;13.30;6.00;;;10.60;99.90;;;;;;4998655;28;20033;-67
2022/05/15 00:35:56;;;;;;;12.73;5.85;;;10.60;99.90;;;;;;4997387;28;20135;-67
2022/05/15 00:38:21;;;;;;;11.57;6.88;;;10.50;99.90;;;;;;4995569;28;20056;-67
2022/05/15 00:40:48;;;;;;;13.25;5.30;;;10.50;99.90;;;;;;4998184;28;20963;-67
2022/05/15 00:43:54;;;;;;;9.10;5.13;;;10.50;99.90;;;;;;4998150;28;20060;-66
2022/05/15 00:46:24;;;;;;;12.05;5.55;;;10.50;99.90;;;;;;4997043;28;20138;-66
2022/05/15 00:48:51;;;;;;;12.07;6.57;;;10.40;99.90;;;;;;5006680;28;20053;-67
2022/05/15 00:51:44;;;;;;;8.38;5.30;;;10.40;99.90;;;;;;5002984;28;20496;-67
2022/05/15 00:54:29;;;;;;;15.25;5.82;;;9.70;99.90;;;;;;5002487;28;20050;-67
2022/05/15 00:57:19;;;;;;;11.80;5.45;;;10.10;99.90;;;;;;5000237;28;20604;-67
2022/05/15 01:00:03;;;;;;;10.70;5.25;;;10.10;99.90;;;;;;5007775;28;20888;-67
2022/05/15 01:02:35;;;;;;;11.75;4.43;;;10.00;99.90;;;;;;4998120;28;20091;-68
2022/05/15 01:05:02;;;;;;;12.95;4.88;;;9.90;99.90;;;;;;4999342;28;20777;-67
2022/05/15 01:07:28;;;;;;;11.82;5.55;;;9.90;99.90;;;;;;5000715;28;20084;-68
2022/05/15 01:09:54;;;;;;;12.25;5.63;;;9.90;99.90;;;;;;5011430;28;20140;-68
2022/05/15 01:12:21;;;;;;;11.82;5.50;;;10.00;99.90;;;;;;5007149;28;20045;-68
2022/05/15 01:14:48;;;;;;;11.88;5.75;;;10.00;99.90;;;;;;5000790;28;20045;-68
2022/05/15 01:17:14;;;;;;;11.35;6.15;;;9.90;99.90;;;;;;5008253;28;20118;-67
2022/05/15 01:19:42;;;;;;;7.18;4.57;;;9.90;99.90;;;;;;5004078;28;20045;-67
2022/05/15 01:22:11;;;;;;;12.40;5.85;;;9.90;99.90;;;;;;4999465;28;20045;-67
2022/05/15 01:24:37;;;;;;;11.32;6.15;;;9.80;99.90;;;;;;5001390;28;20053;-68
2022/05/15 01:27:07;;;;;;;9.05;3.88;;;9.70;99.90;;;;;;5000514;28;20038;-67
2022/05/15 01:29:40;;;;;;;8.45;5.15;;;9.70;99.90;;;;;;5001466;28;20052;-67
2022/05/15 01:32:06;;;;;;;17.20;6.20;;;9.70;99.90;;;;;;5002549;28;20184;-67
2022/05/15 01:34:32;;;;;;;15.40;5.70;;;9.70;99.90;;;;;;5002234;28;20041;-67
2022/05/15 01:36:59;;;;;;;20.45;5.50;;;9.70;99.90;;;;;;5002588;28;20041;-67
2022/05/15 01:39:26;;;;;;;9.02;5.10;;;9.60;99.90;;;;;;5002566;28;20094;-67
2022/05/15 01:41:51;;;;;;;12.70;6.38;;;9.50;99.90;;;;;;5007228;28;20187;-67
2022/05/15 01:44:17;;;;;;;13.10;6.18;;;9.50;99.90;;;;;;5013353;28;20979;-68
2022/05/15 01:46:42;;;;;;;11.77;5.97;;;9.40;99.90;;;;;;5003661;28;20068;-65
2022/05/15 01:49:08;;;;;;;10.50;5.78;;;9.40;99.90;;;;;;5002803;28;20081;-66
2022/05/15 01:51:37;;;;;;;10.82;4.70;;;9.50;99.90;;;;;;5002536;28;20052;-65
2022/05/15 01:54:03;;;;;;;16.77;5.68;;;9.60;99.90;;;;;;5007776;28;20548;-65
2022/05/15 01:56:29;;;;;;;8.23;5.55;;;9.60;99.90;;;;;;5005231;28;20041;-65
2022/05/15 01:58:55;;;;;;;11.25;7.03;;;9.60;99.90;;;;;;5000755;28;20053;-65
2022/05/15 02:01:21;;;;;;;9.95;5.13;;;9.60;99.90;;;;;;5002532;28;20033;-65
2022/05/15 02:03:47;;;;;;;14.30;6.82;;;9.60;99.90;;;;;;5011469;28;20059;-65
2022/05/15 02:06:13;;;;;;;12.60;5.53;;;9.60;99.90;;;;;;5008106;28;20037;-65
2022/05/15 02:08:39;;;;;;;12.48;5.30;;;9.70;99.90;;;;;;5001813;28;20064;-66
2022/05/15 02:11:05;;;;;;;12.38;5.47;;;9.50;99.90;;;;;;5001291;28;20056;-65
2022/05/15 02:13:31;;;;;;;9.85;5.57;;;9.40;99.90;;;;;;5003019;28;20045;-65
2022/05/15 02:15:57;;;;;;;13.35;7.07;;;9.40;99.90;;;;;;5012905;28;20052;-66
2022/05/15 02:18:24;;;;;;;12.70;5.68;;;9.40;99.90;;;;;;5002713;28;20050;-66
2022/05/15 02:20:49;;;;;;;9.93;4.85;;;9.40;99.90;;;;;;5000576;28;20679;-65
2022/05/15 02:23:15;;;;;;;15.43;6.28;;;9.40;99.90;;;;;;5002871;28;20067;-66
2022/05/15 02:25:41;;;;;;;12.40;5.90;;;9.40;99.90;;;;;;5009128;28;20047;-65
2022/05/15 02:28:07;;;;;;;12.07;5.95;;;9.40;99.90;;;;;;5007359;28;20408;-66
2022/05/15 02:30:33;;;;;;;13.23;5.93;;;9.40;99.90;;;;;;5001533;28;20049;-66
2022/05/15 02:32:58;;;;;;;11.73;5.30;;;9.40;99.90;;;;;;5001155;28;20135;-66
2022/05/15 02:35:24;;;;;;;10.35;5.88;;;9.40;99.90;;;;;;5002269;28;20041;-66
2022/05/15 02:37:49;;;;;;;11.85;6.50;;;9.40;99.90;;;;;;5001474;28;20053;-66
2022/05/15 02:40:18;;;;;;;11.68;6.13;;;9.30;99.90;;;;;;4999820;28;20181;-66
2022/05/15 02:42:44;;;;;;;10.90;4.40;;;9.30;99.90;;;;;;5005566;28;20041;-66
2022/05/15 02:45:10;;;;;;;8.00;4.22;;;9.30;99.90;;;;;;5008974;28;20052;-66
2022/05/15 02:47:36;;;;;;;16.63;6.80;;;9.30;99.90;;;;;;5002385;28;20052;-66
2022/05/15 02:52:47;;;;;;;7.75;5.15;;;9.20;99.90;;;;;;5001082;28;20547;-66
2022/05/15 02:55:13;;;;;;;12.60;5.85;;;9.10;99.90;;;;;;5002503;28;20041;-66
2022/05/15 02:57:40;;;;;;;11.73;6.05;;;9.10;99.90;;;;;;5006020;28;20049;-66
2022/05/15 03:00:09;;;;;;;9.63;5.60;;;9.00;99.90;;;;;;5011167;28;20072;-66
2022/05/15 03:02:38;;;;;;;11.25;4.80;;;9.00;99.90;;;;;;5002726;28;20771;-66
2022/05/15 03:05:06;;;;;;;10.18;6.03;;;8.90;99.90;;;;;;5001906;28;20050;-66
2022/05/15 03:07:31;;;;;;;12.20;6.43;;;9.00;99.90;;;;;;5008772;28;20054;-66
2022/05/15 03:09:57;;;;;;;13.45;4.90;;;9.00;99.90;;;;;;5004037;28;20089;-66
2022/05/15 03:12:22;;;;;;;13.02;6.75;;;9.00;99.90;;;;;;5005178;28;20053;-66
2022/05/15 03:14:48;;;;;;;10.68;5.32;;;9.00;99.90;;;;;;5003610;28;20049;-66
2022/05/15 03:17:16;;;;;;;9.50;5.70;;;8.90;99.90;;;;;;5005727;28;20033;-66
2022/05/15 03:19:43;;;;;;;11.93;5.07;;;;;;;;;;5004877;28;20087;-66
2022/05/15 03:22:08;;;;;;;11.45;5.60;;;8.90;99.90;;;;;;5005651;28;20060;-66
2022/05/15 03:24:34;;;;;;;18.83;7.32;;;9.00;99.90;;;;;;5007653;28;20041;-66
2022/05/15 03:27:00;;;;;;;9.57;5.22;;;9.00;99.90;;;;;;5013560;28;20053;-66
2022/05/15 03:29:26;;;;;;;9.35;4.65;;;9.00;99.90;;;;;;5005475;28;20053;-66
2022/05/15 03:31:52;;;;;;;19.52;5.15;;;8.90;99.90;;;;;;5005733;28;20041;-66
2022/05/15 03:34:18;;;;;;;9.57;6.97;;;8.90;99.90;;;;;;5003364;28;20064;-66
2022/05/15 03:36:46;;;;;;;13.75;5.18;;;8.90;99.90;;;;;;5003752;28;20140;-66
2022/05/15 03:39:14;;;;;;;6.50;4.07;;;8.90;99.90;;;;;;5010696;28;20076;-66
2022/05/15 03:41:39;;;;;;;10.23;5.68;;;8.80;99.90;;;;;;5015786;28;20069;-66
2022/05/15 03:44:06;;;;;;;8.27;5.90;;;8.80;99.90;;;;;;5005693;28;20051;-67
2022/05/15 03:46:32;;;;;;;7.70;4.82;;;8.70;99.90;;;;;;5004687;28;22024;-66
2022/05/15 03:48:58;;;;;;;16.27;5.38;;;8.70;99.90;;;;;;5007779;28;20053;-66
2022/05/15 03:51:24;;;;;;;12.93;5.65;;;8.70;99.90;;;;;;5001890;28;20042;-66
2022/05/15 03:53:50;;;;;;;8.68;6.28;;;8.70;99.90;;;;;;5004385;28;20048;-66
2022/05/15 03:56:16;;;;;;;13.65;7.90;;;8.70;99.90;;;;;;5002909;28;21106;-66
2022/05/15 03:58:43;;;;;;;18.65;6.70;;;8.70;99.90;;;;;;5003101;28;20060;-67
2022/05/15 04:01:09;;;;;;;12.38;5.93;;;8.80;99.90;;;;;;5002751;28;20041;-66
2022/05/15 04:03:35;;;;;;;13.85;6.03;;;8.80;99.90;;;;;;5011297;28;20049;-66
2022/05/15 04:06:00;;;;;;;20.48;6.05;;;8.80;99.90;;;;;;5014997;28;20042;-66
2022/05/15 04:08:27;;;;;;;17.80;6.72;;;8.90;99.90;;;;;;5003780;28;20067;-66
2022/05/15 04:10:54;;;;;;;14.50;5.80;;;9.00;99.90;;;;;;5004758;28;20844;-66
2022/05/15 04:13:20;;;;;;;18.88;6.88;;;9.00;99.90;;;;;;5004689;28;20127;-66
2022/05/15 04:15:45;;;;;;;11.90;5.85;;;9.10;99.90;;;;;;5003288;28;20996;-66
2022/05/15 04:18:11;;;;;;;12.85;9.13;;;9.10;99.90;;;;;;5004782;28;20084;-66
2022/05/15 04:20:37;;;;;;;13.00;5.45;;;9.20;99.90;;;;;;5002585;28;20953;-66
2022/05/15 04:23:03;;;;;;;7.75;5.85;;;9.20;99.90;;;;;;5003407;28;20896;-66
2022/05/15 04:25:28;;;;;;;12.32;6.70;;;9.20;99.90;;;;;;5004467;28;20052;-66
2022/05/15 04:27:54;;;;;;;12.55;5.05;;;9.20;99.90;;;;;;5017198;28;20049;-66
2022/05/15 04:30:23;;;;;;;7.60;4.68;;;9.20;99.90;;;;;;5017100;28;20827;-66
2022/05/15 04:32:51;;;;;;;7.93;4.00;;;9.20;99.90;;;;;;5017056;28;20103;-66
2022/05/15 04:35:17;;;;;;;8.40;5.25;;;9.20;99.90;;;;;;5016168;28;20090;-66
2022/05/15 04:37:43;;;;;;;7.50;3.22;;;9.20;99.90;;;;;;5015723;28;20060;-66
2022/05/15 04:40:10;;;;;;;3.72;3.22;;;9.30;99.90;;;;;;5014823;28;20045;-66
2022/05/15 04:42:36;;;;;;;3.65;3.33;;;9.30;99.90;;;;;;5016338;28;20162;-66
2022/05/15 04:45:02;;;;;;;7.45;4.28;;;9.20;99.90;;;;;;5017091;28;20140;-66
2022/05/15 04:47:27;;;;;;;7.55;5.28;;;9.30;99.90;;;;;;5016855;28;20131;-66
2022/05/15 04:49:53;;;;;;;9.57;4.95;;;9.30;99.90;;;;;;5014312;28;20064;-66
2022/05/15 04:52:19;;;;;;;12.77;6.45;;;9.30;99.90;;;;;;5015434;28;20047;-66
2022/05/15 04:54:44;;;;;;;13.52;5.57;;;9.40;99.90;;;;;;5014275;28;20760;-66
2022/05/15 04:57:10;;;;;;;14.43;7.07;;;9.40;99.90;;;;;;5004239;28;20069;-66
2022/05/15 04:59:36;;;;;;;12.00;5.57;;;9.50;99.90;;;;;;5005648;28;20947;-66
2022/05/15 05:02:03;;;;;;;13.80;7.13;;;9.50;99.90;;;;;;5006748;28;20117;-67
2022/05/15 05:04:29;;;;;;;10.18;7.85;;;9.50;99.90;;;;;;5006785;28;20053;-66
2022/05/15 05:06:54;;;;;;;8.93;7.22;;;9.60;99.90;;;;;;5001499;28;20041;-66
2022/05/15 05:09:20;;;;;;;13.35;6.53;;;9.70;99.90;;;;;;5000273;28;20135;-66
2022/05/15 05:11:45;;;;;;;22.55;8.43;;;9.80;99.90;;;;;;5000300;28;20115;-66
2022/05/15 05:14:11;;;;;;;22.83;7.45;;;9.90;99.90;;;;;;5001740;28;20052;-66
2022/05/15 05:16:37;;;;;;;14.65;8.02;;;9.90;99.90;;;;;;5001550;28;20111;-66
2022/05/15 05:19:03;;;;;;;18.45;8.13;;;10.00;99.90;;;;;;4998825;28;20061;-66
2022/05/15 05:21:29;;;;;;;17.65;9.63;;;10.10;99.90;;;;;;5000992;28;20056;-66
2022/05/15 05:23:55;;;;;;;25.13;9.15;;;10.20;99.90;;;;;;4999673;28;20176;-67
2022/05/15 05:26:22;;;;;;;17.02;8.50;;;10.20;99.90;;;;;;5004192;28;20376;-66
2022/05/15 05:28:47;;;;;;;19.10;10.25;;;10.30;99.90;;;;;;5009582;28;20053;-66
2022/05/15 05:31:14;;;;;;;20.27;10.05;;;10.40;99.90;;;;;;5004648;28;22020;-66
2022/05/15 05:33:40;;;;;;;15.48;8.30;;;10.40;99.90;;;;;;5001292;28;20045;-66
2022/05/15 05:36:06;;;;;;;24.00;9.80;;;10.50;99.90;;;;;;4998418;28;20045;-66
2022/05/15 05:38:33;;;;;;;16.85;7.13;;;10.60;99.90;;;;;;5003653;28;20414;-66
2022/05/15 05:40:58;;;;;;;12.50;6.85;;;10.70;99.90;;;;;;5010635;28;20686;-66
2022/05/15 05:43:24;;;;;;;9.85;6.72;;;10.80;99.90;;;;;;5004195;28;20049;-67
2022/05/15 05:45:49;;;;;;;13.57;8.50;;;11.00;99.90;;;;;;4998847;28;20041;-67
2022/05/15 05:48:15;;;;;;;15.75;8.00;;;11.10;99.90;;;;;;4998895;28;20064;-66
2022/05/15 05:50:40;;;;;;;14.60;7.85;;;11.10;99.90;;;;;;4997895;28;20041;-66
2022/05/15 05:53:07;;;;;;;20.25;9.05;;;11.30;99.90;;;;;;4999326;28;20045;-66
2022/05/15 05:55:32;;;;;;;14.82;7.70;;;11.40;99.90;;;;;;4997169;28;20053;-66
2022/05/15 05:57:58;;;;;;;22.40;9.02;;;11.50;99.90;;;;;;4997874;28;20044;-66
2022/05/15 06:00:32;;;;;;;19.08;9.60;;;11.60;99.90;;;;;;4999186;28;20050;-66
2022/05/15 06:05:43;;;;;;;19.90;7.68;;;12.00;99.90;;;;;;5000675;28;20049;-66
2022/05/15 06:08:10;;;;;;;24.73;9.85;;;12.20;99.90;;;;;;5000256;28;20049;-67
2022/05/15 06:10:35;;;;;;;24.02;8.98;;;12.40;99.90;;;;;;5004801;28;20049;-66
2022/05/15 06:13:01;;;;;;;16.60;9.25;;;12.70;99.90;;;;;;5003843;28;20041;-66
2022/05/15 06:15:26;;;;;;;17.10;9.30;;;12.80;99.90;;;;;;4998381;28;20124;-66
2022/05/15 06:17:52;;;;;;;22.58;9.88;;;12.90;99.90;;;;;;4998943;28;20787;-67
2022/05/15 06:20:17;;;;;;;16.58;9.50;;;13.10;99.90;;;;;;5000199;28;20049;-66
2022/05/15 06:22:44;;;;;;;21.58;9.35;;;13.20;99.90;;;;;;4997348;28;20150;-66
2022/05/15 06:25:10;;;;;;;16.27;8.65;;;13.30;99.90;;;;;;4997973;28;20647;-66
2022/05/15 06:27:39;;;;;;;23.65;7.88;;;13.50;99.90;;;;;;4997575;28;20680;-66
2022/05/15 06:30:05;;;;;;;17.17;7.75;;;13.80;99.90;;;;;;4999234;28;20064;-67
2022/05/15 06:32:31;;;;;;;20.48;7.72;;;14.20;99.90;;;;;;4999562;28;20048;-67
2022/05/15 06:34:56;;;;;;;16.10;6.80;;;14.90;99.90;;;;;;4997722;28;20049;-66
2022/05/15 06:37:22;;;;;;;24.77;8.10;;;16.20;99.90;;;;;;4999257;28;20045;-66
2022/05/15 06:39:48;;;;;;;14.07;6.47;;;17.30;99.90;;;;;;5000109;28;20044;-66
2022/05/15 06:42:14;;;;;;;12.52;5.88;;;18.00;99.90;;;;;;5000955;28;20045;-67
2022/05/15 06:44:40;;;;;;;15.75;6.32;;;19.00;99.90;;;;;;5008239;28;20748;-66
2022/05/15 06:47:06;;;;;;;12.98;6.03;;;19.80;99.90;;;;;;5003322;28;20041;-67
2022/05/15 06:49:31;;;;;;;11.90;5.93;;;20.10;99.90;;;;;;5006653;28;20060;-67
2022/05/15 06:51:57;;;;;;;10.75;5.53;;;20.60;99.90;;;;;;5008433;28;20056;-67
2022/05/15 06:54:22;;;;;;;11.48;5.57;;;20.40;99.90;;;;;;5003126;28;20046;-67
2022/05/15 06:59:34;;;;;;;12.60;5.53;;;20.50;99.90;;;;;;5002723;28;20862;-67
2022/05/15 07:02:00;;;;;;;11.10;6.20;;;20.60;99.90;;;;;;5002266;28;20125;-67
2022/05/15 07:04:26;;;;;;;14.80;5.50;;;20.60;98.90;;;;;;5003554;28;20098;-67
2022/05/15 07:06:51;;;;;;;9.23;5.32;;;21.10;98.10;;;;;;4999247;28;20626;-67
2022/05/15 07:09:17;;;;;;;12.02;5.38;;;21.40;97.00;;;;;;5000131;28;20071;-67
2022/05/15 07:11:43;;;;;;;13.73;5.93;;;21.60;96.10;;;;;;4999333;28;20050;-67
2022/05/15 07:14:09;;;;;;;11.45;5.90;;;21.80;95.30;;;;;;5002302;28;20049;-67
2022/05/15 07:16:35;;;;;;;12.18;4.82;;;21.50;94.50;;;;;;5003584;28;20581;-66
2022/05/15 07:19:01;;;;;;;13.32;5.65;;;21.80;94.50;;;;;;5000913;28;20377;-66
2022/05/15 07:21:26;;;;;;;9.43;4.95;;;21.90;92.90;;;;;;4999702;28;20727;-67
2022/05/15 07:23:52;;;;;;;15.70;5.68;;;22.40;93.30;;;;;;5009970;28;20255;-67
2022/05/15 07:26:18;;;;;;;11.75;5.38;;;22.50;92.80;;;;;;5004525;28;20075;-67
2022/05/15 07:28:50;;;;;;;12.15;5.43;;;22.80;91.50;;;;;;5002733;28;20050;-67
2022/05/15 07:31:18;;;;;;;13.30;5.03;;;22.90;91.70;;;;;;5001894;28;20058;-67
2022/05/15 07:33:45;;;;;;;12.38;5.28;;;23.30;91.10;;;;;;5000439;28;20077;-67
2022/05/15 07:36:11;;;;;;;8.35;4.35;;;23.30;90.40;;;;;;5003622;28;20165;-67
2022/05/15 07:38:36;;;;;;;10.40;4.28;;;23.40;89.80;;;;;;5002977;28;20049;-68
2022/05/15 07:41:02;;;;;;;11.30;4.28;;;23.40;88.00;;;;;;5010594;28;20052;-67
2022/05/15 07:43:28;;;;;;;9.88;5.53;;;23.60;87.20;;;;;;5007722;28;20799;-67
2022/05/15 07:45:53;;;;;;;10.70;5.10;;;23.60;86.30;;;;;;5000051;28;20053;-67
2022/05/15 07:48:19;;;;;;;8.47;3.70;;;23.60;86.50;;;;;;4651906;28;9999672;-67
2022/05/15 07:50:45;;;;;;;14.18;5.25;;;23.90;86.50;;;;;;4650211;28;10000385;-67
2022/05/15 07:53:11;;;;;;;13.40;4.03;;;24.50;84.30;;;;;;4999308;28;20515;-67
2022/05/15 07:55:37;;;;;;;11.50;4.30;;;24.70;81.90;;;;;;4994044;28;20220;-67
2022/05/15 07:58:03;;;;;;;11.85;4.22;;;24.70;80.10;;;;;;4998314;28;20892;-66
2022/05/15 08:00:29;;;;;;;10.15;3.65;;;25.10;80.00;;;;;;4993960;28;20137;-67
2022/05/15 08:03:23;;;;;;;9.52;3.88;;;25.20;79.00;;;;;;4994473;28;20063;-66
2022/05/15 08:08:34;;;;;;;10.20;4.53;;;25.00;77.60;;;;;;4993331;28;20062;-67
2022/05/15 08:11:00;;;;;;;10.43;4.47;;;24.40;78.10;;;;;;4992164;28;20835;-67
2022/05/15 08:13:28;;;;;;;7.80;3.72;;;24.40;77.90;;;;;;4995452;28;20089;-67
2022/05/15 08:15:54;;;;;;;9.35;4.20;;;24.80;77.30;;;;;;4995168;28;20038;-67
2022/05/15 08:23:53;;;;;;;13.85;4.57;;;25.10;75.50;;;;;;5001922;28;20057;-67
2022/05/15 08:26:19;;;;;;;10.50;4.30;;;25.20;75.60;;;;;;4996462;28;20053;-66
2022/05/15 08:28:46;;;;;;;10.02;4.82;;;25.70;74.60;;;;;;4995436;28;20053;-67
2022/05/15 08:31:12;;;;;;;8.38;3.90;;;25.50;73.00;;;;;;4996620;28;20064;-67
2022/05/15 08:33:39;;;;;;;8.10;4.25;;;25.50;73.70;;;;;;4996959;28;20259;-66
2022/05/15 08:36:06;;;;;;;7.47;4.07;;;25.80;73.20;;;;;;4991381;28;20052;-66
2022/05/15 08:38:32;;;;;;;14.38;4.88;;;25.60;72.70;;;;;;4991434;28;20054;-67
2022/05/15 08:41:13;;;;;;;10.65;4.35;;;25.00;72.20;;;;;;4996935;28;20572;-66
2022/05/15 08:44:14;;;;;;;12.77;4.70;;;24.90;70.00;;;;;;4996966;28;20156;-67
2022/05/15 08:46:49;;;;;;;13.68;4.30;;;24.80;70.70;;;;;;5000044;28;20046;-67
2022/05/15 08:49:38;;;;;;;10.75;3.90;;;24.90;72.10;;;;;;4996713;28;20073;-67
2022/05/15 08:52:11;;;;;;;13.05;4.47;;;24.80;68.00;;;;;;4997816;28;20148;-67
2022/05/15 08:55:06;;;;;;;6.38;4.03;;;24.90;68.30;;;;;;4997763;28;20124;-67
2022/05/15 08:57:40;;;;;;;9.35;3.75;;;24.80;68.70;;;;;;4994727;28;20081;-67
2022/05/15 09:00:10;;;;;;;12.27;4.97;;;25.20;69.60;;;;;;4997686;28;20405;-67
2022/05/15 09:02:40;;;;;;;10.13;4.07;;;25.30;68.30;;;;;;4999554;28;20151;-67
2022/05/15 09:05:06;;;;;;;8.30;3.67;;;25.70;69.70;;;;;;4996891;28;20045;-66
2022/05/15 09:08:16;;;;;;;8.75;3.85;;;25.70;69.00;;;;;;4997774;28;20080;-67
2022/05/15 09:11:01;;;;;;;10.68;4.18;;;25.60;67.40;;;;;;4996852;28;20049;-67
2022/05/15 09:13:46;;;;;;;9.50;4.32;;;25.80;65.60;;;;;;4996602;28;20088;-69
2022/05/15 09:16:28;;;;;;;10.70;4.03;;;25.50;67.10;;;;;;4999606;28;20063;-68
2022/05/15 09:19:08;;;;;;;6.10;3.63;;;25.40;66.00;;;;;;5001071;28;20045;-66
2022/05/15 09:21:34;;;;;;;9.68;4.28;;;25.60;67.20;;;;;;4998210;28;20139;-66
2022/05/15 09:24:15;;;;;;;9.05;3.50;;;25.10;67.40;;;;;;4648457;28;10000201;-66
2022/05/15 09:26:46;;;;;;;9.75;3.67;;;25.30;65.90;;;;;;4997465;28;20144;-67
2022/05/15 09:29:22;;;;;;;13.27;4.35;;;25.30;67.20;;;;;;5000262;28;20052;-67
2022/05/15 09:31:48;;;;;;;9.13;4.00;;;25.00;65.80;;;;;;4998971;28;20235;-68
2022/05/15 09:34:20;;;;;;;11.07;4.30;;;24.90;67.30;;;;;;5004224;28;20049;-67
2022/05/15 09:36:46;;;;;;;11.37;4.63;;;25.00;66.00;;;;;;5000614;28;20091;-67
2022/05/15 09:39:22;;;;;;;9.63;3.83;;;25.20;66.90;;;;;;5005753;28;20088;-67
2022/05/15 09:44:45;;;;;;;10.85;4.43;;;25.60;64.50;;;;;;4995220;28;20092;-67
2022/05/15 09:47:11;;;;;;;9.80;3.50;;;26.20;66.00;;;;;;4996512;28;20548;-67
2022/05/15 09:49:37;;;;;;;10.05;4.15;;;26.20;65.50;;;;;;4997075;28;20060;-67
2022/05/15 09:52:13;;;;;;;12.55;4.63;;;26.30;65.40;;;;;;4996566;28;20053;-67
2022/05/15 09:54:43;;;;;;;9.45;3.67;;;26.30;63.90;;;;;;4996179;28;20053;-67
2022/05/15 09:57:25;;;;;;;10.60;4.43;;;26.40;64.70;;;;;;4997769;28;20128;-67
2022/05/15 09:59:55;;;;;;;11.25;4.13;;;25.70;62.70;;;;;;4995027;28;20779;-67
2022/05/15 10:02:24;;;;;;;8.60;4.40;;;25.20;65.20;;;;;;4995140;28;20920;-67
2022/05/15 10:04:52;;;;;;;7.85;4.07;;;25.10;65.90;;;;;;4995612;28;20087;-66
2022/05/15 10:07:34;;;;;;;9.25;3.92;;;24.80;66.20;;;;;;4993510;28;20074;-67
2022/05/15 10:10:17;;;;;;;10.23;4.13;;;24.80;65.20;;;;;;4991671;28;20053;-66
2022/05/15 10:12:45;;;;;;;8.68;4.03;;;25.20;64.20;;;;;;4995968;28;20826;-66
2022/05/15 10:15:12;;;;;;;8.80;4.28;;;25.10;65.80;;;;;;4996186;28;20052;-66
2022/05/15 10:17:55;;;;;;;7.40;4.15;;;25.30;66.10;;;;;;4992842;28;20045;-66
2022/05/15 10:20:30;;;;;;;8.52;4.18;;;25.70;64.40;;;;;;4994230;28;20049;-66
2022/05/15 10:23:02;;;;;;;6.53;3.83;;;25.60;64.70;;;;;;4996022;28;20046;-66
2022/05/15 10:25:45;;;;;;;11.48;3.78;;;25.30;64.70;;;;;;4998981;28;20053;-67
2022/05/15 10:28:46;;;;;;;6.97;3.78;;;25.10;63.20;;;;;;5001577;28;20053;-66
2022/05/15 10:31:24;;;;;;;8.43;4.05;;;24.90;63.50;;;;;;4996130;28;20869;-66
2022/05/15 10:33:54;;;;;;;9.63;3.85;;;25.30;64.40;;;;;;4997909;28;20057;-67
2022/05/15 10:36:52;;;;;;;8.65;4.07;;;25.60;64.70;;;;;;4995718;28;20127;-66
2022/05/15 10:39:49;;;;;;;11.35;4.13;;;25.50;63.20;;;;;;4993068;28;20219;-66
2022/05/15 10:42:18;;;;;;;14.50;5.15;;;26.00;63.70;;;;;;4994062;28;20045;-67
2022/05/15 10:45:03;;;;;;;8.80;3.60;;;26.40;64.20;;;;;;4994779;28;20108;-66
2022/05/15 10:47:44;;;;;;;12.80;4.95;;;26.50;63.20;;;;;;4992857;28;20054;-66
2022/05/15 10:50:22;;;;;;;12.38;4.30;;;26.00;61.50;;;;;;4992883;28;20044;-66
2022/05/15 10:52:51;;;;;;;14.25;4.05;;;25.60;62.40;;;;;;4993557;28;20517;-66
2022/05/15 10:58:54;;;;;;;8.90;4.03;;;24.90;63.60;;;;;;4994017;28;21049;-66
2022/05/15 11:01:39;;;;;;;10.15;4.50;;;24.70;64.00;;;;;;4995027;28;20810;-66
2022/05/15 11:04:36;;;;;;;10.25;4.55;;;24.30;61.80;;;;;;4999442;28;20045;-66
2022/05/15 11:07:13;;;;;;;11.25;4.32;;;23.80;63.60;;;;;;4996711;28;20191;-66
2022/05/15 11:10:07;;;;;;;10.90;4.28;;;23.20;65.00;;;;;;4996784;28;20107;-66
2022/05/15 11:13:09;;;;;;;10.63;4.00;;;23.30;65.30;;;;;;4994499;28;20817;-61
2022/05/15 11:15:57;;;;;;;14.07;4.57;;;23.40;65.20;;;;;;5003296;28;20042;-67
2022/05/15 11:19:04;;;;;;;12.73;5.45;;;23.10;63.50;;;;;;5004985;28;20092;-66
2022/05/15 11:21:46;;;;;;;12.70;4.32;;;23.40;64.80;;;;;;5001100;28;20100;-65
2022/05/15 11:24:22;;;;;;;10.07;3.92;;;23.10;64.40;;;;;;5000750;28;20050;-66
2022/05/15 11:26:53;;;;;;;6.18;3.50;;;23.20;64.20;;;;;;5004050;28;20160;-65
2022/05/15 11:29:20;;;;;;;9.20;4.55;;;23.00;64.80;;;;;;5005208;28;20111;-65
2022/05/15 11:31:53;;;;;;;10.30;4.45;;;22.70;64.30;;;;;;5008077;28;20049;-66
2022/05/15 11:34:19;;;;;;;10.63;4.35;;;22.60;64.50;;;;;;5004580;28;20061;-65
2022/05/15 11:36:49;;;;;;;7.15;3.05;;;22.60;64.10;;;;;;5002250;28;20041;-65
2022/05/15 11:39:14;;;;;;;11.10;3.88;;;22.80;64.70;;;;;;5003671;28;22213;-64
2022/05/15 11:42:08;;;;;;;8.32;4.05;;;22.70;64.30;;;;;;5005203;28;20046;-65
2022/05/15 11:44:46;;;;;;;11.73;5.07;;;22.80;64.40;;;;;;5000020;28;20038;-66
2022/05/15 11:47:14;;;;;;;7.93;3.45;;;23.20;65.90;;;;;;5011768;28;20053;-66
2022/05/15 11:49:57;;;;;;;7.18;3.28;;;23.10;63.80;;;;;;5005241;28;20049;-66
2022/05/15 11:52:39;;;;;;;8.70;4.00;;;23.30;64.20;;;;;;5000495;28;20045;-66
2022/05/15 11:55:42;;;;;;;6.18;4.07;;;23.40;64.20;;;;;;4999797;28;20037;-66
2022/05/15 11:58:23;;;;;;;4.75;2.90;;;23.30;63.50;;;;;;4969183;28;20050;-65
2022/05/15 12:01:24;;;;;;;9.23;3.85;;;23.50;63.00;;;;;;4998228;28;20759;-66
2022/05/15 12:03:55;;;;;;;12.57;4.35;;;23.40;64.10;;;;;;4996146;28;20061;-65
2022/05/15 12:06:25;;;;;;;9.50;3.50;;;23.20;62.80;;;;;;4997795;28;20056;-65
2022/05/15 12:09:15;;;;;;;6.75;3.70;;;23.20;63.20;;;;;;4999591;28;20050;-65
2022/05/15 12:11:42;;;;;;;8.80;3.55;;;23.20;63.60;;;;;;4998826;28;20586;-65
2022/05/15 12:14:29;;;;;;;7.95;3.90;;;23.40;63.50;;;;;;5000578;28;20038;-65
2022/05/15 12:17:03;;;;;;;7.07;3.15;;;23.50;63.80;;;;;;5002052;28;20669;-65
2022/05/15 12:19:36;;;;;;;13.35;4.03;;;23.40;62.90;;;;;;5004458;28;20136;-65
2022/05/15 12:22:10;;;;;;;10.40;3.78;;;23.40;63.10;;;;;;5010603;28;20149;-65
2022/05/15 12:24:39;;;;;;;8.13;4.00;;;23.50;63.60;;;;;;5001306;28;20056;-65
2022/05/15 12:27:19;;;;;;;8.25;3.05;;;23.40;63.30;;;;;;5001825;28;20983;-65
2022/05/15 12:30:01;;;;;;;7.30;3.92;;;23.60;63.90;;;;;;5001408;28;20045;-65
2022/05/15 12:32:41;;;;;;;9.43;3.97;;;24.10;63.30;;;;;;5000379;28;20049;-65
2022/05/15 12:35:31;;;;;;;10.15;3.60;;;23.60;62.80;;;;;;4999310;28;20092;-65
2022/05/15 12:38:03;;;;;;;9.00;3.10;;;23.40;63.10;;;;;;5001738;28;20064;-65
2022/05/15 12:40:35;;;;;;;8.32;3.95;;;23.50;63.50;;;;;;5000167;28;20505;-66
2022/05/15 12:43:03;;;;;;;6.00;3.13;;;23.60;63.80;;;;;;4999518;28;20092;-65
2022/05/15 12:45:32;;;;;;;7.80;3.30;;;23.70;63.60;;;;;;5003193;28;20037;-65
2022/05/15 12:48:12;;;;;;;9.45;3.88;;;23.80;62.30;;;;;;5002857;28;20041;-65
2022/05/15 12:50:56;;;;;;;8.13;3.83;;;24.00;62.80;;;;;;5003196;28;20049;-65
2022/05/15 12:53:29;;;;;;;10.43;3.90;;;23.80;60.30;;;;;;5006213;28;20873;-65
2022/05/15 12:56:08;;;;;;;8.27;3.70;;;23.70;61.40;;;;;;5001499;28;20042;-65
2022/05/15 12:58:34;;;;;;;6.43;3.20;;;23.70;61.80;;;;;;5001856;28;20050;-65
2022/05/15 13:01:01;;;;;;;10.73;3.85;;;23.90;62.20;;;;;;5009219;28;20647;-65
2022/05/15 13:03:27;;;;;;;8.48;3.63;;;24.10;62.10;;;;;;5007966;28;20049;-65
2022/05/15 13:05:56;;;;;;;8.45;3.88;;;24.20;61.40;;;;;;5003595;28;20056;-65
2022/05/15 13:08:23;;;;;;;8.88;3.28;;;24.20;61.10;;;;;;5004501;28;20148;-65
2022/05/15 13:11:03;;;;;;;9.20;3.00;;;24.20;61.10;;;;;;5005926;28;20049;-65
2022/05/15 13:13:35;;;;;;;13.43;4.05;;;24.10;60.60;;;;;;5001976;28;20091;-65
2022/05/15 13:16:01;;;;;;;8.97;3.50;;;24.20;60.20;;;;;;5001000;28;20052;-65
2022/05/15 13:18:31;;;;;;;6.28;3.35;;;24.40;60.50;;;;;;5001555;28;20077;-64
2022/05/15 13:21:05;;;;;;;6.03;2.88;;;24.50;60.60;;;;;;5002356;28;20617;-65
2022/05/15 13:23:37;;;;;;;5.00;2.47;;;24.50;60.30;;;;;;5003422;28;20055;-65